Time;durP1;ratioP1;P1;durP2;ratioP2;P2;SDS_P1;SDS_P2;PMS_P1;PMS_P2;Temp;Humidity;BMP_temperature;BMP_pressure;BME280_temperature;BME280_humidity;BME280_pressure;Samples;Min_cycle;Max_cycle;Signal;HPM_P1;HPM_P2
2022/05/09 00:01:59;;;;;;;7.30;3.93;;;;;;;;;;5095468;28;20538;-71
2022/05/09 00:04:28;;;;;;;10.52;4.25;;;;;;;;;;5095786;28;20949;-70
2022/05/09 00:06:55;;;;;;;8.40;3.70;;;;;;;;;;5095397;28;20205;-70
2022/05/09 00:09:23;;;;;;;6.63;4.00;;;;;;;;;;5095615;28;20468;-71
2022/05/09 00:11:50;;;;;;;9.35;4.13;;;;;;;;;;5095215;28;21035;-70
2022/05/09 00:14:17;;;;;;;7.73;4.30;;;;;;;;;;5095090;28;20194;-70
2022/05/09 00:16:45;;;;;;;8.93;5.20;;;;;;;;;;5095415;28;20811;-70
2022/05/09 00:19:13;;;;;;;7.37;3.83;;;;;;;;;;5095045;28;20450;-70
2022/05/09 00:21:43;;;;;;;10.52;3.33;;;;;;;;;;5095431;28;20522;-70
2022/05/09 00:24:14;;;;;;;8.43;4.00;;;;;;;;;;5095197;28;20208;-70
2022/05/09 00:26:41;;;;;;;8.95;3.75;;;;;;;;;;5095748;28;20424;-71
2022/05/09 00:29:10;;;;;;;7.03;4.87;;;;;;;;;;5094825;28;20199;-70
2022/05/09 00:31:39;;;;;;;9.95;3.20;;;;;;;;;;5095136;28;20851;-70
2022/05/09 00:34:06;;;;;;;8.38;3.65;;;;;;;;;;5094694;28;20193;-70
2022/05/09 00:36:34;;;;;;;8.33;4.70;;;;;;;;;;5095081;28;20283;-70
2022/05/09 00:39:03;;;;;;;8.87;4.17;;;;;;;;;;5094622;28;20473;-70
2022/05/09 00:41:34;;;;;;;9.35;4.60;;;;;;;;;;5094598;28;20478;-70
2022/05/09 00:44:02;;;;;;;8.33;3.83;;;;;;;;;;5095224;28;20189;-70
2022/05/09 00:46:30;;;;;;;12.80;4.40;;;;;;;;;;5094589;28;20534;-70
2022/05/09 00:48:58;;;;;;;10.70;3.90;;;;;;;;;;5094971;28;20450;-70
2022/05/09 00:51:27;;;;;;;7.50;3.78;;;;;;;;;;5094474;28;20232;-70
2022/05/09 00:53:56;;;;;;;14.95;4.50;;;;;;;;;;5094747;28;20201;-70
2022/05/09 00:56:27;;;;;;;9.30;4.32;;;;;;;;;;5094353;28;20667;-70
2022/05/09 00:58:56;;;;;;;6.57;3.37;;;;;;;;;;5095014;28;20185;-70
2022/05/09 01:01:24;;;;;;;12.65;4.40;;;;;;;;;;5094507;28;20482;-70
2022/05/09 01:03:55;;;;;;;9.80;4.07;;;;;;;;;;5094636;28;20197;-70
2022/05/09 01:06:22;;;;;;;15.02;4.63;;;;;;;;;;5094236;28;20182;-70
2022/05/09 01:08:49;;;;;;;7.90;4.68;;;;;;;;;;5094057;28;20193;-70
2022/05/09 01:11:18;;;;;;;7.32;4.30;;;;;;;;;;5094059;28;20683;-69
2022/05/09 01:13:48;;;;;;;8.45;3.83;;;;;;;;;;5094006;28;20201;-70
2022/05/09 01:16:17;;;;;;;10.65;4.18;;;;;;;;;;5094537;28;20559;-70
2022/05/09 01:18:45;;;;;;;14.88;4.25;;;;;;;;;;5093874;28;20194;-70
2022/05/09 01:21:27;;;;;;;10.57;4.35;;;;;;;;;;5094243;28;20221;-70
2022/05/09 01:23:56;;;;;;;9.97;4.17;;;;;;;;;;5094166;28;20185;-70
2022/05/09 01:26:23;;;;;;;7.30;4.25;;;;;;;;;;5094187;28;20471;-70
2022/05/09 01:28:50;;;;;;;5.28;4.05;;;;;;;;;;5093759;28;20201;-70
2022/05/09 01:31:18;;;;;;;9.23;4.22;;;;;;;;;;5093785;28;20204;-70
2022/05/09 01:33:49;;;;;;;12.60;4.60;;;;;;;;;;5093965;28;20289;-70
2022/05/09 01:36:17;;;;;;;12.80;4.40;;;;;;;;;;5094161;28;20443;-70
2022/05/09 01:38:48;;;;;;;9.75;4.65;;;;;;;;;;5093894;28;20200;-70
2022/05/09 01:41:17;;;;;;;15.48;4.20;;;;;;;;;;5093605;28;20217;-70
2022/05/09 01:43:45;;;;;;;12.23;5.17;;;;;;;;;;5093944;28;20562;-70
2022/05/09 01:46:13;;;;;;;9.65;4.65;;;;;;;;;;5093481;28;20963;-69
2022/05/09 01:51:26;;;;;;;11.65;4.50;;;;;;;;;;5093777;28;20359;-70
2022/05/09 01:53:53;;;;;;;6.65;3.90;;;;;;;;;;5094073;28;20186;-70
2022/05/09 01:56:23;;;;;;;8.27;3.78;;;;;;;;;;5093400;28;20193;-70
2022/05/09 01:58:51;;;;;;;10.13;4.35;;;;;;;;;;5093982;28;20186;-70
2022/05/09 02:01:18;;;;;;;6.63;4.20;;;;;;;;;;5093500;28;20231;-70
2022/05/09 02:03:46;;;;;;;9.38;3.90;;;;;;;;;;5094431;28;20439;-70
2022/05/09 02:06:14;;;;;;;12.30;4.38;;;;;;;;;;5093253;28;20196;-70
2022/05/09 02:08:42;;;;;;;9.40;4.85;;;;;;;;;;5093826;28;20553;-70
2022/05/09 02:11:09;;;;;;;13.23;4.13;;;;;;;;;;5093615;28;20236;-70
2022/05/09 02:13:38;;;;;;;9.73;4.22;;;;;;;;;;5093620;28;20195;-70
2022/05/09 02:16:05;;;;;;;9.30;4.65;;;;;;;;;;5093716;28;20201;-70
2022/05/09 02:18:33;;;;;;;10.63;4.53;;;;;;;;;;5093221;28;20196;-70
2022/05/09 02:21:00;;;;;;;8.73;4.10;;;;;;;;;;5093464;28;20239;-71
2022/05/09 02:23:28;;;;;;;8.57;5.00;;;;;;;;;;5093542;28;20200;-70
2022/05/09 02:25:55;;;;;;;8.32;3.72;;;;;;;;;;5093618;28;20203;-70
2022/05/09 02:28:22;;;;;;;8.48;4.32;;;;;;;;;;5093501;28;20196;-70
2022/05/09 02:30:51;;;;;;;9.52;4.15;;;;;;;;;;5096662;28;20294;-70
2022/05/09 02:33:18;;;;;;;8.30;4.00;;;;;;;;;;5097482;28;20199;-71
2022/05/09 02:35:45;;;;;;;14.93;5.45;;;;;;;;;;5097023;28;20291;-70
2022/05/09 02:38:13;;;;;;;7.32;4.30;;;;;;;;;;5097317;28;20201;-70
2022/05/09 02:40:41;;;;;;;8.45;4.57;;;;;;;;;;5096899;28;20212;-70
2022/05/09 02:43:08;;;;;;;6.80;4.07;;;;;;;;;;5096992;28;20565;-71
2022/05/09 02:45:35;;;;;;;14.70;4.82;;;;;;;;;;5097451;28;20469;-70
2022/05/09 02:48:04;;;;;;;13.07;4.38;;;;;;;;;;5097197;28;20298;-70
2022/05/09 02:50:31;;;;;;;8.88;4.20;;;;;;;;;;5097086;28;20205;-70
2022/05/09 02:52:59;;;;;;;9.07;4.68;;;;;;;;;;5096733;28;20226;-71
2022/05/09 02:55:26;;;;;;;10.70;5.32;;;;;;;;;;5097233;28;20202;-70
2022/05/09 02:57:53;;;;;;;13.57;5.20;;;;;;;;;;5097172;28;20193;-70
2022/05/09 03:00:21;;;;;;;8.45;4.55;;;;;;;;;;5096467;28;20196;-70
2022/05/09 03:05:31;;;;;;;9.65;4.30;;;;;;;;;;5096492;28;20645;-71
2022/05/09 03:07:58;;;;;;;8.38;4.28;;;;;;;;;;5097599;28;20545;-70
2022/05/09 03:10:28;;;;;;;12.55;4.57;;;;;;;;;;5096696;28;20191;-70
2022/05/09 03:12:55;;;;;;;12.70;5.50;;;;;;;;;;5096863;28;20629;-70
2022/05/09 03:15:23;;;;;;;8.43;5.20;;;;;;;;;;5096255;28;20728;-70
2022/05/09 03:17:50;;;;;;;12.57;5.57;;;;;;;;;;5096619;28;20200;-70
2022/05/09 03:20:17;;;;;;;14.48;5.05;;;;;;;;;;5096390;28;20200;-70
2022/05/09 03:22:46;;;;;;;14.45;5.13;;;;;;;;;;5096346;28;20628;-70
2022/05/09 03:25:13;;;;;;;15.55;4.80;;;;;;;;;;5096031;28;20598;-70
2022/05/09 03:27:40;;;;;;;13.25;4.90;;;;;;;;;;5096422;28;20196;-70
2022/05/09 03:30:08;;;;;;;14.80;5.35;;;;;;;;;;5096776;28;20197;-70
2022/05/09 03:32:35;;;;;;;12.77;4.60;;;;;;;;;;5095985;28;20210;-70
2022/05/09 03:35:03;;;;;;;13.38;6.93;;;;;;;;;;5096504;28;20550;-70
2022/05/09 03:37:30;;;;;;;17.65;5.88;;;;;;;;;;5096151;28;20291;-70
2022/05/09 03:39:58;;;;;;;6.43;3.80;;;;;;;;;;5096156;28;20200;-70
2022/05/09 03:42:26;;;;;;;10.38;5.30;;;;;;;;;;5095378;28;20234;-70
2022/05/09 03:44:53;;;;;;;16.23;6.53;;;;;;;;;;5096148;28;20304;-71
2022/05/09 03:47:20;;;;;;;9.50;5.10;;;;;;;;;;5096004;28;20198;-66
2022/05/09 03:49:47;;;;;;;13.77;5.72;;;;;;;;;;5095992;28;20192;-66
2022/05/09 03:52:14;;;;;;;16.20;5.30;;;;;;;;;;5096004;28;20230;-66
2022/05/09 03:54:41;;;;;;;11.63;5.53;;;;;;;;;;5095511;28;20193;-66
2022/05/09 03:57:10;;;;;;;11.88;5.95;;;;;;;;;;5095783;28;20204;-66
2022/05/09 03:59:37;;;;;;;11.82;4.82;;;;;;;;;;5095522;28;20203;-66
2022/05/09 04:02:05;;;;;;;19.42;5.63;;;;;;;;;;5095575;28;20220;-66
2022/05/09 04:04:32;;;;;;;15.05;5.45;;;;;;;;;;5096458;28;20282;-65
2022/05/09 04:06:59;;;;;;;13.32;5.30;;;;;;;;;;5095996;28;20200;-66
2022/05/09 04:09:26;;;;;;;10.48;4.95;;;;;;;;;;5095609;28;20224;-66
2022/05/09 04:11:53;;;;;;;11.65;5.40;;;;;;;;;;5095471;28;20295;-66
2022/05/09 04:16:49;;;;;;;9.38;5.63;;;;;;;;;;5095622;28;20190;-65
2022/05/09 04:17:08;;;;;;;17.98;5.82;;;;;;;;;;5095209;28;20729;-66
2022/05/09 04:19:36;;;;;;;14.75;6.30;;;;;;;;;;5095503;28;20630;-65
2022/05/09 04:22:03;;;;;;;11.50;5.15;;;;;;;;;;5095366;28;20227;-65
2022/05/09 04:24:30;;;;;;;9.93;6.10;;;;;;;;;;5095237;28;20193;-66
2022/05/09 04:26:58;;;;;;;10.07;5.30;;;;;;;;;;5094845;28;20197;-66
2022/05/09 04:29:27;;;;;;;18.57;5.80;;;;;;;;;;5095760;28;20211;-66
2022/05/09 04:31:54;;;;;;;11.55;5.70;;;;;;;;;;5095604;28;20443;-65
2022/05/09 04:34:22;;;;;;;10.23;5.53;;;;;;;;;;5095152;28;20196;-65
2022/05/09 04:36:49;;;;;;;17.85;6.03;;;;;;;;;;5094965;28;20242;-65
2022/05/09 04:39:17;;;;;;;15.00;6.03;;;;;;;;;;5095083;28;20192;-66
2022/05/09 04:41:44;;;;;;;12.80;6.28;;;;;;;;;;5094541;28;20245;-65
2022/05/09 04:44:12;;;;;;;13.38;5.20;;;;;;;;;;5094663;28;20284;-65
2022/05/09 04:46:40;;;;;;;13.45;6.05;;;;;;;;;;5094570;28;20199;-66
2022/05/09 04:49:08;;;;;;;11.07;6.18;;;;;;;;;;5094534;28;20236;-65
2022/05/09 04:51:35;;;;;;;12.65;8.35;;;;;;;;;;5094783;28;20242;-65
2022/05/09 04:54:02;;;;;;;14.48;6.07;;;;;;;;;;5094230;28;20189;-66
2022/05/09 04:56:29;;;;;;;10.25;4.60;;;;;;;;;;5094613;28;20189;-66
2022/05/09 04:58:56;;;;;;;14.77;4.80;;;;;;;;;;5094912;28;20288;-65
2022/05/09 05:01:23;;;;;;;17.75;5.10;;;;;;;;;;5094162;28;20224;-66
2022/05/09 05:03:52;;;;;;;14.35;6.38;;;;;;;;;;5094452;28;20189;-66
2022/05/09 05:06:19;;;;;;;14.70;5.57;;;;;;;;;;5094752;28;20287;-66
2022/05/09 05:08:46;;;;;;;15.20;5.72;;;;;;;;;;5094032;28;20193;-66
2022/05/09 05:11:14;;;;;;;15.50;6.72;;;;;;;;;;5094658;28;20208;-66
2022/05/09 05:13:41;;;;;;;14.77;5.60;;;;;;;;;;5094010;28;20674;-66
2022/05/09 05:16:08;;;;;;;10.98;5.88;;;;;;;;;;5094361;28;20954;-65
2022/05/09 05:18:35;;;;;;;18.00;6.50;;;;;;;;;;5094227;28;20193;-71
2022/05/09 05:21:10;;;;;;;18.10;5.40;;;;;;;;;;5094181;28;20530;-70
2022/05/09 05:23:38;;;;;;;12.23;6.80;;;;;;;;;;5094383;28;20459;-70
2022/05/09 05:26:05;;;;;;;16.92;6.05;;;;;;;;;;5094009;28;20940;-71
2022/05/09 05:28:33;;;;;;;12.10;5.80;;;;;;;;;;5093944;28;20194;-70
2022/05/09 05:31:11;;;;;;;7.97;5.07;;;;;;;;;;5094074;28;20500;-70
2022/05/09 05:33:39;;;;;;;15.27;6.30;;;;;;;;;;5094134;28;20262;-70
2022/05/09 05:36:06;;;;;;;30.87;16.63;;;;;;;;;;5094016;28;20440;-71
2022/05/09 05:38:35;;;;;;;18.63;7.10;;;;;;;;;;5093506;28;20436;-71
2022/05/09 05:41:02;;;;;;;14.33;5.67;;;;;;;;;;5093526;28;20439;-71
2022/05/09 05:43:30;;;;;;;12.37;5.87;;;;;;;;;;5093475;28;20509;-71
2022/05/09 05:45:57;;;;;;;11.20;5.50;;;;;;;;;;5093885;28;20440;-71
2022/05/09 05:48:25;;;;;;;12.60;4.67;;;;;;;;;;5093444;28;20486;-71
2022/05/09 05:50:52;;;;;;;12.27;5.77;;;;;;;;;;5093590;28;20837;-72
2022/05/09 05:53:19;;;;;;;13.40;5.37;;;;;;;;;;5093269;28;20867;-71
2022/05/09 05:55:48;;;;;;;9.30;5.40;;;;;;;;;;5093502;28;20451;-71
2022/05/09 05:58:15;;;;;;;16.87;5.73;;;;;;;;;;5093359;28;20439;-71
2022/05/09 06:00:42;;;;;;;12.20;6.10;;;;;;;;;;5093423;28;20440;-71
2022/05/09 06:03:09;;;;;;;11.07;5.67;;;;;;;;;;5093066;28;20210;-70
2022/05/09 06:05:37;;;;;;;16.57;6.20;;;;;;;;;;5093039;28;20940;-70
2022/05/09 06:08:05;;;;;;;13.20;5.53;;;;;;;;;;5093210;28;20497;-71
2022/05/09 06:10:32;;;;;;;18.13;5.57;;;;;;;;;;5093732;28;20446;-71
2022/05/09 06:13:02;;;;;;;14.70;6.10;;;;;;;;;;5093558;28;20450;-71
2022/05/09 06:15:32;;;;;;;12.63;5.00;;;;;;;;;;5093756;28;20444;-71
2022/05/09 06:17:59;;;;;;;16.50;4.87;;;;;;;;;;5093448;28;20535;-71
2022/05/09 06:20:27;;;;;;;22.17;5.73;;;;;;;;;;5093453;28;20435;-71
2022/05/09 06:22:56;;;;;;;14.60;5.50;;;;;;;;;;5093727;28;20976;-71
2022/05/09 06:25:23;;;;;;;14.70;4.37;;;;;;;;;;5093182;28;20445;-71
2022/05/09 06:27:51;;;;;;;12.77;4.83;;;;;;;;;;5093376;28;20474;-70
2022/05/09 06:30:21;;;;;;;16.80;5.60;;;;;;;;;;5093379;28;20464;-71
2022/05/09 06:32:48;;;;;;;9.83;5.73;;;;;;;;;;5093690;28;20800;-70
2022/05/09 06:35:20;;;;;;;14.90;5.23;;;;;;;;;;5093448;28;20435;-71
2022/05/09 06:37:47;;;;;;;11.27;4.70;;;;;;;;;;5093960;28;20874;-70
2022/05/09 06:40:15;;;;;;;8.43;4.70;;;;;;;;;;5093381;28;20475;-72
2022/05/09 06:42:42;;;;;;;9.17;4.70;;;;;;;;;;5093312;28;20844;-71
2022/05/09 06:45:10;;;;;;;14.07;5.23;;;;;;;;;;5093275;28;20801;-70
2022/05/09 06:47:45;;;;;;;9.97;5.70;;;;;;;;;;5092970;28;20936;-71
2022/05/09 06:50:12;;;;;;;10.13;5.47;;;;;;;;;;5093265;28;20434;-71
2022/05/09 06:52:39;;;;;;;10.23;4.70;;;;;;;;;;5093149;28;20471;-72
2022/05/09 06:55:07;;;;;;;14.03;5.47;;;;;;;;;;5092894;28;20878;-71
2022/05/09 06:57:37;;;;;;;12.57;5.13;;;;;;;;;;5093266;28;20439;-70
2022/05/09 07:00:05;;;;;;;12.63;6.40;;;;;;;;;;5092837;28;20949;-71
2022/05/09 07:02:32;;;;;;;9.93;4.60;;;;;;;;;;5092730;28;20562;-71
2022/05/09 07:05:03;;;;;;;11.00;4.50;;;;;;;;;;5092964;28;20447;-70
2022/05/09 07:07:30;;;;;;;10.13;5.77;;;;;;;;;;5092754;28;20989;-71
2022/05/09 07:09:57;;;;;;;13.43;8.07;;;;;;;;;;5092882;28;20522;-71
2022/05/09 07:12:24;;;;;;;9.07;5.43;;;;;;;;;;5092829;28;20510;-70
2022/05/09 07:14:52;;;;;;;13.33;6.07;;;;;;;;;;5093036;28;20444;-70
2022/05/09 07:17:19;;;;;;;11.63;5.10;;;;;;;;;;5095124;28;20445;-70
2022/05/09 07:19:46;;;;;;;9.63;4.97;;;;;;;;;;5096228;28;20443;-71
2022/05/09 07:22:14;;;;;;;10.50;5.40;;;;;;;;;;5096043;28;20486;-70
2022/05/09 07:24:42;;;;;;;10.03;5.13;;;;;;;;;;5096473;28;20562;-70
2022/05/09 07:27:09;;;;;;;9.57;5.57;;;;;;;;;;5096337;28;20444;-71
2022/05/09 07:29:36;;;;;;;7.50;5.30;;;;;;;;;;5095987;28;20443;-71
2022/05/09 07:32:03;;;;;;;13.17;5.90;;;;;;;;;;5096900;28;20440;-70
2022/05/09 07:34:31;;;;;;;15.30;5.37;;;;;;;;;;5096695;28;20443;-71
2022/05/09 07:36:58;;;;;;;9.57;5.63;;;;;;;;;;5096035;28;20444;-71
2022/05/09 07:39:27;;;;;;;9.30;5.13;;;;;;;;;;5095933;28;20498;-70
2022/05/09 07:41:54;;;;;;;12.20;5.77;;;;;;;;;;5096533;28;20454;-70
2022/05/09 07:44:21;;;;;;;11.77;4.93;;;;;;;;;;5095735;28;20526;-71
2022/05/09 07:46:48;;;;;;;16.53;5.40;;;;;;;;;;5096011;28;20451;-70
2022/05/09 07:49:15;;;;;;;19.93;5.40;;;;;;;;;;5095700;28;20441;-71
2022/05/09 07:51:43;;;;;;;15.23;5.50;;;;;;;;;;5095821;28;20786;-71
2022/05/09 07:54:10;;;;;;;13.13;5.27;;;;;;;;;;5095698;28;20467;-71
2022/05/09 07:56:39;;;;;;;10.50;6.97;;;;;;;;;;5096388;28;20437;-71
2022/05/09 07:59:06;;;;;;;13.33;5.57;;;;;;;;;;5095751;28;20532;-70
2022/05/09 08:01:33;;;;;;;15.87;6.60;;;;;;;;;;5095968;28;20436;-70
2022/05/09 08:04:01;;;;;;;8.10;5.90;;;;;;;;;;5095702;28;20820;-69
2022/05/09 08:06:28;;;;;;;9.73;4.90;;;;;;;;;;5095797;28;20479;-70
2022/05/09 08:08:55;;;;;;;11.30;5.17;;;;;;;;;;5095685;28;20448;-71
2022/05/09 08:11:23;;;;;;;8.83;5.20;;;;;;;;;;5094724;28;20453;-69
2022/05/09 08:13:52;;;;;;;14.43;5.80;;;;;;;;;;5095537;28;20454;-71
2022/05/09 08:16:20;;;;;;;16.10;6.07;;;;;;;;;;5095320;28;20440;-71
2022/05/09 08:18:48;;;;;;;9.10;5.40;;;;;;;;;;5095592;28;20460;-70
2022/05/09 08:21:16;;;;;;;8.90;5.50;;;;;;;;;;5095248;28;20448;-70
2022/05/09 08:23:43;;;;;;;9.40;5.70;;;;;;;;;;5095228;28;20564;-71
2022/05/09 08:26:11;;;;;;;11.40;5.37;;;;;;;;;;5095290;28;20935;-70
2022/05/09 08:28:39;;;;;;;14.17;5.47;;;;;;;;;;5095072;28;20937;-70
2022/05/09 08:31:08;;;;;;;13.40;5.33;;;;;;;;;;5095036;28;20446;-71
2022/05/09 08:33:35;;;;;;;11.33;5.70;;;;;;;;;;5094810;28;20940;-70
2022/05/09 08:36:07;;;;;;;13.37;5.43;;;;;;;;;;5094994;28;20523;-70
2022/05/09 08:38:34;;;;;;;10.77;6.00;;;;;;;;;;5095314;28;20429;-70
2022/05/09 08:41:08;;;;;;;11.83;6.27;;;;;;;;;;5094939;28;20451;-70
2022/05/09 08:43:45;;;;;;;8.73;6.43;;;;;;;;;;5095208;28;20463;-71
2022/05/09 08:46:17;;;;;;;19.57;10.83;;;;;;;;;;5094983;28;20433;-71
2022/05/09 08:48:51;;;;;;;14.53;8.23;;;;;;;;;;5095155;28;20456;-70
2022/05/09 08:51:25;;;;;;;10.73;5.60;;;;;;;;;;5094093;28;20530;-70
2022/05/09 08:53:56;;;;;;;11.37;5.70;;;;;;;;;;5094765;28;20518;-70
2022/05/09 08:56:24;;;;;;;8.10;5.20;;;;;;;;;;5094387;28;20906;-70
2022/05/09 08:58:55;;;;;;;18.87;5.90;;;;;;;;;;5094614;28;20531;-70
2022/05/09 09:01:29;;;;;;;9.47;5.77;;;;;;;;;;5094717;28;20454;-70
2022/05/09 09:03:58;;;;;;;10.70;5.50;;;;;;;;;;5094538;28;20471;-70
2022/05/09 09:06:42;;;;;;;11.57;5.33;;;;;;;;;;5094488;28;20536;-70
2022/05/09 09:09:13;;;;;;;10.20;5.50;;;;;;;;;;5094189;28;20440;-70
2022/05/09 09:11:45;;;;;;;6.90;4.83;;;;;;;;;;5094187;28;20421;-70
2022/05/09 09:14:18;;;;;;;13.43;6.43;;;;;;;;;;5094345;28;20943;-70
2022/05/09 09:16:52;;;;;;;9.47;5.70;;;;;;;;;;5094093;28;20456;-70
2022/05/09 09:19:30;;;;;;;9.60;5.10;;;;;;;;;;5094657;28;20427;-70
2022/05/09 09:22:00;;;;;;;14.20;5.27;;;;;;;;;;5094000;28;20451;-70
2022/05/09 09:24:36;;;;;;;9.83;4.60;;;;;;;;;;5094158;28;20909;-70
2022/05/09 09:27:06;;;;;;;10.07;4.87;;;;;;;;;;5094119;28;20436;-70
2022/05/09 09:29:34;;;;;;;10.37;4.63;;;;;;;;;;5094048;28;20443;-70
2022/05/09 09:32:05;;;;;;;10.37;4.97;;;;;;;;;;5093921;28;20444;-70
2022/05/09 09:34:36;;;;;;;9.70;5.23;;;;;;;;;;5094326;28;20913;-70
2022/05/09 09:37:09;;;;;;;11.17;5.10;;;;;;;;;;5093768;28;20446;-70
2022/05/09 09:39:36;;;;;;;9.70;4.77;;;;;;;;;;5093075;28;20528;-70
2022/05/09 09:42:03;;;;;;;7.63;4.57;;;;;;;;;;5093823;28;20519;-70
2022/05/09 09:44:34;;;;;;;14.97;4.90;;;;;;;;;;5093917;28;20529;-71
2022/05/09 09:47:08;;;;;;;8.43;4.70;;;;;;;;;;5093918;28;20443;-71
2022/05/09 09:49:36;;;;;;;12.00;4.30;;;;;;;;;;5094070;28;20899;-71
2022/05/09 09:52:04;;;;;;;7.50;4.80;;;;;;;;;;5093202;28;20528;-70
2022/05/09 09:54:33;;;;;;;7.00;3.93;;;;;;;;;;5094458;28;20535;-71
2022/05/09 09:57:15;;;;;;;7.23;4.40;;;;;;;;;;5093377;28;20448;-71
2022/05/09 09:59:42;;;;;;;11.40;6.87;;;;;;;;;;5093969;28;20478;-71
2022/05/09 10:02:17;;;;;;;6.53;4.13;;;;;;;;;;5093218;28;20453;-71
2022/05/09 10:04:44;;;;;;;9.70;4.30;;;;;;;;;;5093502;28;20969;-71
2022/05/09 10:07:16;;;;;;;12.03;3.90;;;;;;;;;;5093738;28;20451;-70
2022/05/09 10:09:45;;;;;;;7.47;4.67;;;;;;;;;;5093326;28;20427;-71
2022/05/09 10:12:16;;;;;;;8.43;4.50;;;;;;;;;;5093517;28;20440;-70
2022/05/09 10:14:43;;;;;;;10.47;4.03;;;;;;;;;;5093967;28;20439;-70
2022/05/09 10:17:17;;;;;;;8.20;4.40;;;;;;;;;;5093406;28;20436;-70
2022/05/09 10:19:44;;;;;;;8.80;4.10;;;;;;;;;;5094019;28;20524;-70
2022/05/09 10:24:59;;;;;;;8.97;4.60;;;;;;;;;;5093276;28;20452;-70
2022/05/09 10:27:28;;;;;;;7.27;4.00;;;;;;;;;;5093188;28;20788;-70
2022/05/09 10:29:56;;;;;;;5.47;4.03;;;;;;;;;;5093759;28;20442;-70
2022/05/09 10:32:29;;;;;;;5.70;4.30;;;;;;;;;;5093036;28;20478;-70
2022/05/09 10:35:00;;;;;;;8.77;3.90;;;;;;;;;;5093213;28;20998;-70
2022/05/09 10:37:29;;;;;;;5.27;4.67;;;;;;;;;;5093008;28;20487;-70
2022/05/09 10:40:01;;;;;;;8.37;4.70;;;;;;;;;;5093468;28;20443;-71
2022/05/09 10:42:34;;;;;;;7.10;4.60;;;;;;;;;;5093391;28;20430;-70
2022/05/09 10:45:04;;;;;;;12.57;4.50;;;;;;;;;;5092908;28;20473;-70
2022/05/09 10:47:36;;;;;;;7.40;4.77;;;;;;;;;;5093294;28;20434;-71
2022/05/09 10:50:09;;;;;;;8.03;3.87;;;;;;;;;;5093709;28;20461;-70
2022/05/09 10:52:41;;;;;;;7.07;4.00;;;;;;;;;;5095957;28;20476;-70
2022/05/09 10:55:13;;;;;;;4.87;4.37;;;;;;;;;;5096843;28;20437;-70
2022/05/09 10:57:42;;;;;;;9.10;6.43;;;;;;;;;;5097347;28;20426;-70
2022/05/09 11:00:12;;;;;;;12.20;5.80;;;;;;;;;;5097351;28;20883;-70
2022/05/09 11:02:43;;;;;;;5.33;4.40;;;;;;;;;;5096800;28;20911;-70
2022/05/09 11:05:11;;;;;;;5.53;3.20;;;;;;;;;;5096350;28;20571;-71
2022/05/09 11:07:41;;;;;;;6.10;4.07;;;;;;;;;;5096256;28;20450;-70
2022/05/09 11:10:12;;;;;;;11.13;4.53;;;;;;;;;;5096516;28;20443;-71
2022/05/09 11:12:44;;;;;;;6.73;4.10;;;;;;;;;;5096428;28;20441;-70
2022/05/09 11:15:14;;;;;;;6.93;4.50;;;;;;;;;;5097457;28;20431;-70
2022/05/09 11:17:56;;;;;;;8.13;5.77;;;;;;;;;;5096494;28;20439;-71
2022/05/09 11:20:34;;;;;;;8.10;4.83;;;;;;;;;;5094515;28;20447;-70
2022/05/09 11:23:14;;;;;;;7.60;4.50;;;;;;;;;;5096636;28;20873;-70
2022/05/09 11:25:45;;;;;;;6.77;3.77;;;;;;;;;;5097002;28;20430;-70
2022/05/09 11:28:20;;;;;;;8.80;4.30;;;;;;;;;;5096078;28;20916;-71
2022/05/09 11:30:49;;;;;;;5.37;4.30;;;;;;;;;;5096365;28;20789;-71
2022/05/09 11:33:30;;;;;;;6.27;4.33;;;;;;;;;;5096261;28;20447;-71
2022/05/09 11:36:02;;;;;;;8.30;4.10;;;;;;;;;;5096046;28;20422;-70
2022/05/09 11:38:35;;;;;;;7.13;4.17;;;;;;;;;;5095905;28;20424;-69
2022/05/09 11:41:09;;;;;;;7.20;4.20;;;;;;;;;;5096764;28;20431;-71
2022/05/09 11:43:49;;;;;;;7.53;4.47;;;;;;;;;;5095896;28;20983;-70
2022/05/09 11:46:23;;;;;;;7.70;4.33;;;;;;;;;;5095867;28;20431;-70
2022/05/09 11:49:05;;;;;;;4.93;3.90;;;;;;;;;;5095502;28;20448;-69
2022/05/09 11:51:37;;;;;;;9.93;5.07;;;;;;;;;;5095796;28;20484;-70
2022/05/09 11:54:07;;;;;;;6.13;4.93;;;;;;;;;;5096005;28;20437;-69
2022/05/09 11:56:35;;;;;;;8.30;4.30;;;;;;;;;;5095734;28;20976;-69
2022/05/09 11:59:03;;;;;;;11.93;4.80;;;;;;;;;;5095877;28;20458;-70
2022/05/09 12:01:54;;;;;;;4.80;4.40;;;;;;;;;;5096082;28;20439;-69
2022/05/09 12:04:32;;;;;;;4.70;4.20;;;;;;;;;;5080123;28;20479;-70
2022/05/09 12:07:00;;;;;;;5.93;5.03;;;;;;;;;;5095903;28;20435;-69
2022/05/09 12:09:51;;;;;;;11.60;4.27;;;;;;;;;;5095539;28;20897;-70
2022/05/09 12:12:33;;;;;;;4.00;3.60;;;;;;;;;;5080464;28;20466;-69
2022/05/09 12:15:03;;;;;;;6.17;3.60;;;;;;;;;;5094162;28;20459;-69
2022/05/09 12:17:35;;;;;;;7.90;3.93;;;;;;;;;;5095477;28;20428;-69
2022/05/09 12:20:07;;;;;;;4.80;4.30;;;;;;;;;;5095002;28;20486;-69
2022/05/09 12:22:47;;;;;;;5.10;4.13;;;;;;;;;;5095300;28;20448;-70
2022/05/09 12:25:33;;;;;;;4.47;4.07;;;;;;;;;;5095368;28;20472;-70
2022/05/09 12:28:03;;;;;;;4.27;3.87;;;;;;;;;;5095304;28;20466;-70
2022/05/09 12:30:41;;;;;;;8.83;4.60;;;;;;;;;;5095107;28;20442;-70
2022/05/09 12:33:14;;;;;;;10.43;5.50;;;;;;;;;;5095092;28;20431;-71
2022/05/09 12:35:41;;;;;;;6.60;5.00;;;;;;;;;;5095217;28;20846;-70
2022/05/09 12:38:11;;;;;;;6.17;4.50;;;;;;;;;;5094650;28;20451;-70
2022/05/09 12:40:38;;;;;;;10.20;4.57;;;;;;;;;;5094997;28;20887;-70
2022/05/09 12:43:06;;;;;;;5.47;4.70;;;;;;;;;;5094989;28;20458;-70
2022/05/09 12:45:34;;;;;;;4.97;4.17;;;;;;;;;;5094420;28;20536;-71
2022/05/09 12:48:02;;;;;;;5.23;3.97;;;;;;;;;;5094373;28;20449;-69
2022/05/09 12:50:30;;;;;;;4.67;4.27;;;;;;;;;;5095618;28;20477;-71
2022/05/09 12:52:59;;;;;;;5.83;4.43;;;;;;;;;;5094731;28;20570;-70
2022/05/09 12:58:22;;;;;;;9.83;5.40;;;;;;;;;;5094527;28;20805;-70
2022/05/09 13:00:49;;;;;;;7.63;5.00;;;;;;;;;;5094241;28;20533;-70
2022/05/09 13:03:17;;;;;;;4.13;3.40;;;;;;;;;;5094444;28;20470;-70
2022/05/09 13:05:45;;;;;;;6.77;6.03;;;;;;;;;;5094125;28;20547;-71
2022/05/09 13:08:14;;;;;;;6.83;4.37;;;;;;;;;;5094089;28;20459;-70
2022/05/09 13:10:48;;;;;;;7.27;4.10;;;;;;;;;;5094454;28;20442;-70
2022/05/09 13:13:22;;;;;;;10.70;4.80;;;;;;;;;;5094334;28;20431;-71
2022/05/09 13:15:51;;;;;;;4.73;3.83;;;;;;;;;;5094159;28;20440;-71
2022/05/09 13:18:22;;;;;;;12.03;3.90;;;;;;;;;;5093680;28;20943;-70
2022/05/09 13:20:50;;;;;;;9.63;4.50;;;;;;;;;;5093969;28;20428;-70
2022/05/09 13:23:17;;;;;;;6.73;4.57;;;;;;;;;;5094123;28;20446;-70
2022/05/09 13:25:51;;;;;;;9.93;4.60;;;;;;;;;;5094052;28;20494;-70
2022/05/09 13:28:19;;;;;;;7.23;4.30;;;;;;;;;;5094417;28;20438;-70
2022/05/09 13:30:48;;;;;;;4.40;4.00;;;;;;;;;;5094040;28;20431;-71
2022/05/09 13:33:16;;;;;;;6.90;4.00;;;;;;;;;;5093636;28;20443;-71
2022/05/09 13:35:48;;;;;;;6.10;4.60;;;;;;;;;;5093735;28;20446;-70
2022/05/09 13:38:19;;;;;;;5.13;4.67;;;;;;;;;;5093648;28;20460;-71
2022/05/09 13:40:46;;;;;;;6.10;4.13;;;;;;;;;;5093773;28;20483;-71
2022/05/09 13:43:16;;;;;;;4.90;4.40;;;;;;;;;;5093502;28;20987;-71
2022/05/09 13:45:44;;;;;;;8.43;4.57;;;;;;;;;;5093324;28;20479;-71
2022/05/09 13:48:14;;;;;;;7.70;4.77;;;;;;;;;;5093597;28;20462;-72
2022/05/09 13:50:42;;;;;;;4.80;4.00;;;;;;;;;;5093332;28;21027;-71
2022/05/09 13:53:12;;;;;;;8.63;5.17;;;;;;;;;;5093731;28;20508;-71
2022/05/09 13:55:42;;;;;;;6.83;4.13;;;;;;;;;;5093484;28;20540;-71
2022/05/09 13:58:10;;;;;;;5.90;5.00;;;;;;;;;;5094201;28;20437;-71
2022/05/09 14:00:40;;;;;;;7.73;5.17;;;;;;;;;;5093633;28;20780;-71
2022/05/09 14:03:12;;;;;;;6.27;5.67;;;;;;;;;;5093834;28;20534;-71
2022/05/09 14:05:41;;;;;;;7.40;5.60;;;;;;;;;;5093157;28;20558;-72
2022/05/09 14:08:08;;;;;;;4.97;4.50;;;;;;;;;;5093176;28;20479;-71
2022/05/09 14:10:42;;;;;;;7.67;5.17;;;;;;;;;;5093102;28;20481;-71
2022/05/09 14:13:30;;;;;;;7.57;4.83;;;;;;;;;;5093598;28;20525;-70
2022/05/09 14:16:01;;;;;;;5.33;4.70;;;;;;;;;;5088493;28;20537;-72
2022/05/09 14:18:30;;;;;;;7.00;4.90;;;;;;;;;;5093380;28;20524;-71
2022/05/09 14:21:05;;;;;;;6.00;5.50;;;;;;;;;;5093262;28;20440;-71
2022/05/09 14:23:32;;;;;;;6.07;5.47;;;;;;;;;;5093747;28;20481;-71
2022/05/09 14:31:45;;;;;;;8.00;4.87;;;;;;;;;;5097050;28;20825;-71
2022/05/09 14:34:13;;;;;;;9.60;6.50;;;;;;;;;;5097718;28;20441;-71
2022/05/09 14:36:41;;;;;;;8.73;6.63;;;;;;;;;;5097314;28;20432;-71
2022/05/09 14:39:32;;;;;;;7.93;6.20;;;;;;;;;;5097149;28;20436;-71
2022/05/09 14:42:14;;;;;;;6.70;6.00;;;;;;;;;;5081882;28;20944;-71
2022/05/09 14:44:41;;;;;;;6.63;5.30;;;;;;;;;;5096779;28;20575;-71
2022/05/09 14:47:15;;;;;;;10.47;6.20;;;;;;;;;;5097179;28;20863;-71
2022/05/09 14:49:44;;;;;;;6.00;5.33;;;;;;;;;;5097258;28;20410;-71
2022/05/09 14:52:13;;;;;;;7.57;6.00;;;;;;;;;;5096719;28;20474;-71
2022/05/09 14:54:42;;;;;;;7.30;5.70;;;;;;;;;;5096468;28;20535;-70
2022/05/09 14:57:27;;;;;;;7.83;6.20;;;;;;;;;;5096812;28;20810;-71
2022/05/09 15:00:02;;;;;;;7.90;6.53;;;;;;;;;;5096435;28;20416;-71
2022/05/09 15:02:33;;;;;;;7.00;5.60;;;;;;;;;;5071320;22;20460;-71
2022/05/09 15:05:01;;;;;;;5.73;5.13;;;;;;;;;;5056394;28;20500;-72
2022/05/09 15:07:29;;;;;;;6.43;5.83;;;;;;;;;;5056171;28;20925;-71